METAR AND TAF INFORMATION
METAR FOR FACT
ADDS - METARS form results

(0930 UTC 24 October 2020)
Data provider http://aviationweather.gov/metar/data/
 
METAR text: FACT 240900Z 31009KT 9999 BKN010 17/13 Q1017 BECMG SCT025
Conditions at: FACT (CAPETOWN/DF MALA, ZA) observed 0900 UTC 24 October 2020
Temperature: 17.0°C (63°F)
Dewpoint: 13.0°C (55°F) [RH = 77%]
Pressure (altimeter): 30.03 inches Hg (1017.0 mb)
Winds: from the NW (310 degrees) at 10 MPH (9 knots; 4.6 m/s)
Visibility: 6 or more miles (10+ km)
Ceiling: 1000 feet AGL
Clouds: broken clouds at 1000 feet AGL
Weather: no significant weather observed at this time

METAR text: FACT 240856Z 31009KT 9999 BKN010 17/13 Q1017 BECMG SCT025
Conditions at: FACT (CAPETOWN/DF MALA, ZA) observed 0856 UTC 24 October 2020
Temperature: 17.0°C (63°F)
Dewpoint: 13.0°C (55°F) [RH = 77%]
Pressure (altimeter): 30.03 inches Hg (1017.0 mb)
Winds: from the NW (310 degrees) at 10 MPH (9 knots; 4.6 m/s)
Visibility: 6 or more miles (10+ km)
Ceiling: 1000 feet AGL
Clouds: broken clouds at 1000 feet AGL
Weather: no significant weather observed at this time

METAR text: FACT 240832Z 32011KT 280V350 9999 BKN008 17/14 Q1017 BECMG SCT025
Conditions at: FACT (CAPETOWN/DF MALA, ZA) observed 0832 UTC 24 October 2020
Temperature: 17.0°C (63°F)
Dewpoint: 14.0°C (57°F) [RH = 82%]
Pressure (altimeter): 30.03 inches Hg (1017.0 mb)
Winds: from the NW (320 degrees) at 13 MPH (11 knots; 5.7 m/s)
Visibility: 6 or more miles (10+ km)
Ceiling: 800 feet AGL
Clouds: broken clouds at 800 feet AGL
Weather: no significant weather observed at this time

Forecast for: AMD
Text: TAF AMD FACT 240733Z 2406/2512 34010KT 9999 OVC006 TX24/2412Z TN14/2406Z
Forecast period: 0600 to 0700 UTC 24 October 2020
Forecast type: FROM: standard forecast or significant change
Winds: from the NNW (340 degrees) at 12 MPH (10 knots; 5.1 m/s)
Visibility: 6 or more miles (10+ km)
Ceiling: 600 feet AGL
Clouds: overcast cloud deck at 600 feet AGL
Weather: no significant weather forecast for this period
Text: BECMG 2407/2409 9999 SCT025
Forecast period: 0700 to 1800 UTC 24 October 2020
Forecast type: BECOMING: Conditions expected to become as follows by 0900 UTC 24 October 2020
Winds: from the NNW (340 degrees) at 12 MPH (10 knots; 5.1 m/s)
Visibility: 6 or more miles (10+ km)
Ceiling: at least 12,000 feet AGL
Clouds: scattered clouds at 2500 feet AGL
Weather: no significant weather forecast for this period
Text: FM241800 20005KT 9999 BKN025
Forecast period: 1800 UTC 24 October 2020 to 0900 UTC 25 October 2020
Forecast type: FROM: standard forecast or significant change
Winds: from the SSW (200 degrees) at 6 MPH (5 knots; 2.6 m/s)
Visibility: 6 or more miles (10+ km)
Ceiling: 2500 feet AGL
Clouds: broken clouds at 2500 feet AGL
Weather: no significant weather forecast for this period
Text: PROB30
Forecast period: 1900 UTC 24 October 2020 to 0600 UTC 25 October 2020
Forecast type: TEMPORARY: The following changes expected for less than half the time period
Visibility: missing
Ceiling: 1200 feet AGL
Clouds: broken clouds at 1200 feet AGL
Weather: no significant weather forecast for this period
Text: TEMPO 2419/2506 BKN012
Forecast period: 0900 to 1200 UTC 25 October 2020
Forecast type: BECOMING: Conditions expected to become as follows by 1100 UTC 25 October 2020
Winds: from the S (180 degrees) at 20 MPH (17 knots; 8.7 m/s)
Visibility: 6 or more miles (10+ km)
Ceiling: 2500 feet AGL
Clouds: broken clouds at 2500 feet AGL
Weather: no significant weather forecast for this period

 AIRPORT MAP

 RUNWAY INFORMATION
Runway 01 Runway length 10502 ft Runway width 200 ft
Runway elevation 144 ft Runway displaced threshold 0 ft Runway heading 346
Runway 19 Runway length 10502 ft Runway width 200 ft
Runway elevation 147 ft Runway displaced threshold 0 ft Runway heading 166
Runway 16 Runway length 5581 ft Runway width 151 ft
Runway elevation 143 ft Runway displaced threshold 0 ft Runway heading 136
Runway 34 Runway length 5581 ft Runway width 151 ft
Runway elevation 151 ft Runway displaced threshold 0 ft Runway heading 316

 AIRPORT FREQUENCIES
Type APP Name APP Frequency 120.05 MHZ
Type ARSA Name Director Frequency 124.5 MHZ
Type ATIS Name ATIS Frequency 127 MHZ
Type GND Name GND Frequency 121.9 MHZ
Type GTE Name APRON Frequency 122.65 MHZ
Type TWR Name TWR Frequency 118.1 MHZ

 AIRPORT NEAR NAVIGATION AIDS
Type NDB Name Cape Town Frequency 463 KHZ
Type VORTAC Name Cape Town Frequency 115700 KHZ